createdAt,value
2018-12-20T00:00:14.683Z,215.1
2018-12-20T00:01:14.434Z,215
2018-12-20T00:02:14.553Z,215
2018-12-20T00:03:14.610Z,215
2018-12-20T00:04:14.423Z,215
2018-12-20T00:05:14.905Z,215
2018-12-20T00:06:14.361Z,215
2018-12-20T00:07:14.406Z,215
2018-12-20T00:08:14.640Z,215
2018-12-20T00:09:14.777Z,215
2018-12-20T00:10:14.428Z,215
2018-12-20T00:11:14.441Z,215
2018-12-20T00:12:14.508Z,215
2018-12-20T00:13:14.626Z,215
2018-12-20T00:14:14.726Z,215
2018-12-20T00:15:14.768Z,215
2018-12-20T00:16:14.737Z,215
2018-12-20T00:17:14.617Z,215
2018-12-20T00:18:14.520Z,215
2018-12-20T00:19:14.589Z,215
2018-12-20T00:20:14.339Z,215
2018-12-20T00:21:14.638Z,215
2018-12-20T00:22:14.524Z,215
2018-12-20T00:23:14.587Z,215
2018-12-20T00:24:14.457Z,215
2018-12-20T00:25:14.720Z,215
2018-12-20T00:26:14.792Z,215
2018-12-20T00:27:14.393Z,215
2018-12-20T00:28:14.587Z,215
2018-12-20T00:29:14.606Z,215
2018-12-20T00:30:14.840Z,215
2018-12-20T00:31:17.358Z,215
2018-12-20T00:32:14.642Z,215
2018-12-20T00:33:14.415Z,215
2018-12-20T00:34:14.856Z,215
2018-12-20T00:35:14.620Z,215
2018-12-20T00:36:14.458Z,215
2018-12-20T00:37:14.807Z,215
2018-12-20T00:38:14.574Z,215
2018-12-20T00:39:14.696Z,215
2018-12-20T00:40:14.642Z,215
2018-12-20T00:41:14.689Z,215
2018-12-20T00:42:14.499Z,215
2018-12-20T00:43:14.405Z,215
2018-12-20T00:44:14.559Z,215
2018-12-20T00:45:14.355Z,215
2018-12-20T00:46:14.460Z,215
2018-12-20T00:47:14.649Z,215
2018-12-20T00:48:14.617Z,215
2018-12-20T00:49:14.711Z,215
2018-12-20T00:50:14.530Z,215
2018-12-20T00:51:14.489Z,215
2018-12-20T00:52:14.476Z,215
2018-12-20T00:53:14.864Z,215
2018-12-20T00:54:14.627Z,215
2018-12-20T00:55:14.702Z,215
2018-12-20T00:56:14.429Z,215
2018-12-20T00:57:14.425Z,215
2018-12-20T00:58:15.142Z,215
2018-12-20T00:59:14.888Z,215
2018-12-20T01:00:14.945Z,215
2018-12-20T01:01:14.517Z,215
2018-12-20T01:02:14.628Z,215
2018-12-20T01:03:14.814Z,215
2018-12-20T01:04:14.760Z,215
2018-12-20T01:05:14.490Z,215
2018-12-20T01:06:14.615Z,215
2018-12-20T01:07:14.370Z,215
2018-12-20T01:08:14.663Z,215
2018-12-20T01:09:14.581Z,215
2018-12-20T01:10:14.298Z,215
2018-12-20T01:11:14.533Z,215
2018-12-20T01:12:14.457Z,215
2018-12-20T01:13:14.728Z,215
2018-12-20T01:14:14.777Z,215
2018-12-20T01:15:14.709Z,215
2018-12-20T01:16:14.426Z,215
2018-12-20T01:17:14.631Z,215
2018-12-20T01:18:14.610Z,215
2018-12-20T01:19:14.661Z,215
2018-12-20T01:20:14.687Z,215
2018-12-20T01:21:14.480Z,215
2018-12-20T01:22:14.789Z,215
2018-12-20T01:23:14.733Z,215
2018-12-20T01:24:14.407Z,215
2018-12-20T01:25:14.561Z,215
2018-12-20T01:26:14.415Z,215
2018-12-20T01:27:14.551Z,215
2018-12-20T01:28:14.631Z,215
2018-12-20T01:29:14.785Z,215
2018-12-20T01:30:14.597Z,215
2018-12-20T01:31:14.624Z,215
2018-12-20T01:32:14.521Z,215
2018-12-20T01:33:14.539Z,215
2018-12-20T01:34:14.506Z,215
2018-12-20T01:35:14.770Z,215
2018-12-20T01:36:14.474Z,215
2018-12-20T01:37:16.684Z,215
2018-12-20T01:38:14.527Z,215.3
2018-12-20T01:39:14.481Z,215.1
2018-12-20T01:40:14.630Z,215.1
2018-12-20T01:41:14.421Z,215
2018-12-20T01:42:14.325Z,215
2018-12-20T01:43:14.474Z,215
2018-12-20T01:44:14.416Z,215
2018-12-20T01:45:14.455Z,215
2018-12-20T01:46:14.615Z,215
2018-12-20T01:47:14.321Z,215
2018-12-20T01:48:14.479Z,215
2018-12-20T01:49:14.480Z,215
2018-12-20T01:50:14.326Z,215
2018-12-20T01:51:14.332Z,215
2018-12-20T01:52:14.510Z,215
2018-12-20T01:53:14.345Z,215
2018-12-20T01:54:14.699Z,215
2018-12-20T01:55:14.286Z,215
2018-12-20T01:56:14.574Z,215
2018-12-20T01:57:14.570Z,215
2018-12-20T01:58:14.265Z,215
2018-12-20T01:59:14.495Z,215
2018-12-20T02:00:14.610Z,215
2018-12-20T02:01:14.571Z,215
2018-12-20T02:02:14.391Z,215
2018-12-20T02:03:14.464Z,215
2018-12-20T02:04:14.321Z,215
2018-12-20T02:05:14.330Z,215
2018-12-20T02:06:14.380Z,215
2018-12-20T02:07:14.453Z,215
2018-12-20T02:08:14.421Z,215
2018-12-20T02:09:14.781Z,215
2018-12-20T02:10:14.626Z,215
2018-12-20T02:11:14.432Z,215
2018-12-20T02:12:14.564Z,215
2018-12-20T02:13:14.462Z,215
2018-12-20T02:14:14.559Z,215
2018-12-20T02:15:14.344Z,215
2018-12-20T02:16:14.571Z,215
2018-12-20T02:17:14.265Z,215
2018-12-20T02:18:14.635Z,215
2018-12-20T02:19:14.565Z,215
2018-12-20T02:20:14.680Z,215
2018-12-20T02:21:14.615Z,215
2018-12-20T02:22:14.667Z,215
2018-12-20T02:23:14.496Z,215
2018-12-20T02:24:14.289Z,215
2018-12-20T02:25:14.292Z,215
2018-12-20T02:26:14.704Z,215
2018-12-20T02:27:14.875Z,215
2018-12-20T02:28:14.408Z,215
2018-12-20T02:29:14.594Z,215
2018-12-20T02:30:16.648Z,215
2018-12-20T02:31:14.984Z,215
2018-12-20T02:32:14.927Z,215
2018-12-20T02:33:14.352Z,215
2018-12-20T02:34:14.351Z,215
2018-12-20T02:35:14.847Z,215
2018-12-20T02:36:14.871Z,215
2018-12-20T02:37:14.746Z,215
2018-12-20T02:38:14.740Z,215
2018-12-20T02:39:14.876Z,215
2018-12-20T02:40:14.814Z,215
2018-12-20T02:41:14.906Z,215
2018-12-20T02:42:15.095Z,215
2018-12-20T02:43:14.503Z,215
2018-12-20T02:44:14.808Z,215
2018-12-20T02:45:14.719Z,215
2018-12-20T02:46:14.808Z,215
2018-12-20T02:47:14.529Z,215
2018-12-20T02:48:14.641Z,215
2018-12-20T02:49:14.477Z,215
2018-12-20T02:50:14.698Z,215
2018-12-20T02:51:14.363Z,215
2018-12-20T02:52:15.157Z,215
2018-12-20T02:53:14.629Z,215
2018-12-20T02:54:14.929Z,215
2018-12-20T02:55:14.468Z,215
2018-12-20T02:56:14.363Z,215
2018-12-20T02:57:14.875Z,215
2018-12-20T02:58:14.815Z,215
2018-12-20T02:59:14.809Z,215
2018-12-20T03:00:14.966Z,215
2018-12-20T03:01:14.503Z,215
2018-12-20T03:02:14.648Z,215
2018-12-20T03:03:14.774Z,215
2018-12-20T03:04:14.650Z,215
2018-12-20T03:05:15.252Z,215
2018-12-20T03:06:14.541Z,215
2018-12-20T03:07:15.121Z,215
2018-12-20T03:08:14.379Z,215
2018-12-20T03:09:14.761Z,215
2018-12-20T03:10:14.374Z,215
2018-12-20T03:11:15.299Z,215
2018-12-20T03:12:14.658Z,215
2018-12-20T03:13:14.823Z,215
2018-12-20T03:14:14.867Z,215
2018-12-20T03:15:23.725Z,215
2018-12-20T03:16:14.624Z,215
2018-12-20T03:17:14.731Z,215
2018-12-20T03:18:14.974Z,215
2018-12-20T03:19:14.552Z,215
2018-12-20T03:20:14.698Z,215
2018-12-20T03:21:14.391Z,215
2018-12-20T03:22:14.814Z,215
2018-12-20T03:23:14.516Z,215
2018-12-20T03:24:14.782Z,215
2018-12-20T03:25:14.464Z,215
2018-12-20T03:26:14.323Z,215
2018-12-20T03:27:14.890Z,215
2018-12-20T03:28:14.413Z,215
2018-12-20T03:29:15.186Z,215
2018-12-20T03:30:14.558Z,215
2018-12-20T03:31:15.171Z,215
2018-12-20T03:32:14.562Z,215
2018-12-20T03:33:14.598Z,215
2018-12-20T03:34:14.900Z,215
2018-12-20T03:35:14.925Z,215
2018-12-20T03:36:14.697Z,215
2018-12-20T03:37:14.884Z,215
2018-12-20T03:38:14.242Z,215
2018-12-20T03:39:14.596Z,215
2018-12-20T03:40:14.999Z,215
2018-12-20T03:41:14.212Z,215
2018-12-20T03:42:14.834Z,215
2018-12-20T03:43:14.750Z,215
2018-12-20T03:44:14.138Z,215
2018-12-20T03:45:17.089Z,215
2018-12-20T03:46:14.812Z,215
2018-12-20T03:47:14.582Z,215
2018-12-20T03:48:14.906Z,215
2018-12-20T03:49:14.982Z,215.3
2018-12-20T03:50:15.087Z,215.4
2018-12-20T03:51:14.766Z,215.2
2018-12-20T03:52:14.891Z,215.1
2018-12-20T03:53:14.750Z,215
2018-12-20T03:54:14.469Z,215
2018-12-20T03:55:14.625Z,215
2018-12-20T03:56:14.674Z,215
2018-12-20T03:57:15.225Z,215
2018-12-20T03:58:14.608Z,215
2018-12-20T03:59:14.758Z,215
2018-12-20T04:00:14.897Z,215
2018-12-20T04:01:14.400Z,215
2018-12-20T04:02:14.755Z,215
2018-12-20T04:03:14.497Z,215
2018-12-20T04:04:14.324Z,215
2018-12-20T04:05:14.768Z,215
2018-12-20T04:06:14.754Z,215
2018-12-20T04:07:14.838Z,215
2018-12-20T04:08:14.495Z,215
2018-12-20T04:09:14.754Z,215
2018-12-20T04:10:14.960Z,215
2018-12-20T04:11:14.736Z,215
2018-12-20T04:12:14.368Z,215
2018-12-20T04:13:15.230Z,215
2018-12-20T04:14:15.021Z,215
2018-12-20T04:15:14.917Z,215
2018-12-20T04:16:14.382Z,215
2018-12-20T04:17:14.217Z,215
2018-12-20T04:18:14.478Z,215
2018-12-20T04:19:14.925Z,215
2018-12-20T04:20:14.920Z,215
2018-12-20T04:21:14.952Z,215
2018-12-20T04:22:14.848Z,215
2018-12-20T04:23:14.269Z,215
2018-12-20T04:24:14.550Z,215
2018-12-20T04:25:14.777Z,215
2018-12-20T04:26:14.735Z,215
2018-12-20T04:27:14.605Z,215
2018-12-20T04:28:14.833Z,215
2018-12-20T04:29:14.563Z,215
2018-12-20T04:30:14.772Z,215
2018-12-20T04:31:14.883Z,215
2018-12-20T04:32:14.784Z,215
2018-12-20T04:33:14.657Z,215
2018-12-20T04:34:14.609Z,215
2018-12-20T04:35:14.962Z,215
2018-12-20T04:36:15.699Z,215
2018-12-20T04:37:14.472Z,215
2018-12-20T04:38:14.503Z,215
2018-12-20T04:39:14.308Z,215
2018-12-20T04:40:14.509Z,215
2018-12-20T04:41:14.840Z,215
2018-12-20T04:42:14.195Z,215
2018-12-20T04:43:14.689Z,215
2018-12-20T04:44:14.734Z,215
2018-12-20T04:45:14.813Z,215
2018-12-20T04:46:14.724Z,215
2018-12-20T04:47:14.370Z,215
2018-12-20T04:48:14.154Z,215
2018-12-20T04:49:14.642Z,215
2018-12-20T04:50:14.592Z,215
2018-12-20T04:51:14.372Z,215
2018-12-20T04:52:15.103Z,215
2018-12-20T04:53:14.244Z,215
2018-12-20T04:54:14.891Z,215
2018-12-20T04:55:14.370Z,215
2018-12-20T04:56:15.043Z,215
2018-12-20T04:57:14.893Z,215
2018-12-20T04:58:14.660Z,215
2018-12-20T04:59:14.460Z,215
2018-12-20T05:00:14.698Z,215
2018-12-20T05:01:14.838Z,215
2018-12-20T05:02:14.498Z,215
2018-12-20T05:03:14.688Z,215
2018-12-20T05:04:14.777Z,215
2018-12-20T05:05:14.624Z,215
2018-12-20T05:06:14.285Z,215
2018-12-20T05:07:14.502Z,215
2018-12-20T05:08:14.680Z,215
2018-12-20T05:09:15.430Z,215
2018-12-20T05:10:14.930Z,215
2018-12-20T05:11:14.725Z,215.3
2018-12-20T05:12:14.900Z,215.1
2018-12-20T05:13:15.027Z,215.1
2018-12-20T05:14:14.854Z,215
2018-12-20T05:15:14.659Z,215
2018-12-20T05:16:14.259Z,215
2018-12-20T05:17:14.639Z,215
2018-12-20T05:18:14.259Z,215
2018-12-20T05:19:14.941Z,215
2018-12-20T05:20:15.046Z,215
2018-12-20T05:21:14.894Z,215
2018-12-20T05:22:15.131Z,215
2018-12-20T05:23:14.418Z,215
2018-12-20T05:24:14.793Z,215
2018-12-20T05:25:14.313Z,215
2018-12-20T05:26:14.999Z,215
2018-12-20T05:27:14.822Z,215
2018-12-20T05:28:14.415Z,215
2018-12-20T05:29:15.377Z,215
2018-12-20T05:30:15.255Z,215
2018-12-20T05:31:14.119Z,215
2018-12-20T05:32:14.799Z,215
2018-12-20T05:33:14.996Z,215
2018-12-20T05:34:14.223Z,215
2018-12-20T05:35:14.541Z,215
2018-12-20T05:36:14.919Z,215
2018-12-20T05:37:14.853Z,215
2018-12-20T05:38:15.149Z,215
2018-12-20T05:39:14.200Z,215
2018-12-20T05:40:14.650Z,215
2018-12-20T05:41:14.620Z,215
2018-12-20T05:42:14.399Z,215
2018-12-20T05:43:14.893Z,215
2018-12-20T05:44:14.713Z,215
2018-12-20T05:45:14.787Z,215
2018-12-20T05:46:14.902Z,215
2018-12-20T05:47:14.811Z,215
2018-12-20T05:48:14.516Z,215
2018-12-20T05:49:14.561Z,215
2018-12-20T05:50:14.352Z,215
2018-12-20T05:51:14.219Z,215
2018-12-20T05:52:14.184Z,215
2018-12-20T05:53:14.233Z,215
2018-12-20T05:54:14.587Z,215
2018-12-20T05:55:14.587Z,215
2018-12-20T05:56:14.825Z,215
2018-12-20T05:57:14.262Z,215
2018-12-20T05:58:14.226Z,215
2018-12-20T05:59:14.497Z,215
2018-12-20T06:00:14.509Z,215
2018-12-20T06:01:14.564Z,215
2018-12-20T06:02:14.592Z,215
2018-12-20T06:03:14.786Z,215
2018-12-20T06:04:15.156Z,215
2018-12-20T06:05:14.603Z,215
2018-12-20T06:06:14.902Z,215
2018-12-20T06:07:14.525Z,215
2018-12-20T06:08:14.238Z,215
2018-12-20T06:09:14.243Z,215
2018-12-20T06:10:15.128Z,215
2018-12-20T06:11:14.956Z,215
2018-12-20T06:12:14.725Z,215
2018-12-20T06:13:14.673Z,215
2018-12-20T06:14:14.594Z,215
2018-12-20T06:15:14.662Z,215
2018-12-20T06:16:16.718Z,215
2018-12-20T06:17:14.845Z,215
2018-12-20T06:18:14.891Z,215
2018-12-20T06:19:14.718Z,215
2018-12-20T06:20:15.034Z,215
2018-12-20T06:21:14.572Z,215
2018-12-20T06:22:14.193Z,215
2018-12-20T06:23:14.111Z,215
2018-12-20T06:24:14.184Z,215
2018-12-20T06:25:14.211Z,215
2018-12-20T06:26:14.699Z,215
2018-12-20T06:27:14.217Z,215
2018-12-20T06:28:14.029Z,215
2018-12-20T06:29:14.143Z,215
2018-12-20T06:30:14.221Z,215
2018-12-20T06:31:14.289Z,215
2018-12-20T06:32:14.130Z,215
2018-12-20T06:33:14.062Z,215
2018-12-20T06:34:14.220Z,215
2018-12-20T06:35:14.104Z,215
2018-12-20T06:36:14.039Z,215
2018-12-20T06:37:14.174Z,215
2018-12-20T06:38:14.228Z,215
2018-12-20T06:39:14.090Z,215
2018-12-20T06:40:16.304Z,215
2018-12-20T06:41:14.252Z,215
2018-12-20T06:42:14.144Z,215
2018-12-20T06:43:14.264Z,215
2018-12-20T06:44:14.065Z,215
2018-12-20T06:45:14.121Z,215
2018-12-20T06:46:22.249Z,215
2018-12-20T06:47:14.145Z,215
2018-12-20T06:48:14.074Z,215
2018-12-20T06:49:14.229Z,215
2018-12-20T06:50:14.084Z,215
2018-12-20T06:51:14.179Z,215
2018-12-20T06:52:14.148Z,215
2018-12-20T06:53:14.101Z,215
2018-12-20T06:54:14.279Z,215
2018-12-20T06:55:14.102Z,215
2018-12-20T06:56:14.135Z,215
2018-12-20T06:57:14.094Z,215
2018-12-20T06:58:14.125Z,215
2018-12-20T06:59:14.165Z,215
2018-12-20T07:00:14.186Z,215
2018-12-20T07:01:14.034Z,215
2018-12-20T07:02:14.124Z,215
2018-12-20T07:03:14.150Z,215
2018-12-20T07:04:14.229Z,215
2018-12-20T07:05:14.105Z,215
2018-12-20T07:06:14.139Z,221.9
2018-12-20T07:07:14.104Z,242.6
2018-12-20T07:08:14.168Z,252.2
2018-12-20T07:09:14.120Z,256.4
2018-12-20T07:10:14.161Z,258.4
2018-12-20T07:11:14.188Z,259.3
2018-12-20T07:12:14.093Z,259.6
2018-12-20T07:13:14.096Z,259.8
2018-12-20T07:14:14.140Z,259.9
2018-12-20T07:15:14.113Z,260
2018-12-20T07:16:14.179Z,260
2018-12-20T07:17:14.006Z,260
2018-12-20T07:18:14.108Z,260
2018-12-20T07:19:14.096Z,260
2018-12-20T07:20:14.056Z,260
2018-12-20T07:21:14.145Z,260
2018-12-20T07:22:14.069Z,260
2018-12-20T07:23:14.039Z,260
2018-12-20T07:24:14.115Z,260
2018-12-20T07:25:14.117Z,260
2018-12-20T07:26:14.196Z,260
2018-12-20T07:27:14.251Z,260
2018-12-20T07:28:14.069Z,260
2018-12-20T07:29:14.112Z,260
2018-12-20T07:30:14.107Z,260
2018-12-20T07:31:14.181Z,260
2018-12-20T07:32:14.138Z,260
2018-12-20T07:33:14.097Z,260
2018-12-20T07:34:14.032Z,260
2018-12-20T07:35:14.137Z,260
2018-12-20T07:36:14.104Z,260
2018-12-20T07:37:14.095Z,260
2018-12-20T07:38:14.143Z,260
2018-12-20T07:39:14.110Z,260
2018-12-20T07:40:14.119Z,260
2018-12-20T07:41:14.193Z,260
2018-12-20T07:42:14.112Z,260
2018-12-20T07:43:14.085Z,260
2018-12-20T07:44:14.134Z,260
2018-12-20T07:45:14.029Z,267.5
2018-12-20T07:46:15.267Z,286.3
2018-12-20T07:47:14.147Z,296.5
2018-12-20T07:48:14.127Z,301.1
2018-12-20T07:49:14.137Z,303.2
2018-12-20T07:50:14.020Z,304.2
2018-12-20T07:51:14.113Z,304.6
2018-12-20T07:52:14.086Z,304.8
2018-12-20T07:53:14.160Z,304.9
2018-12-20T07:54:14.089Z,305
2018-12-20T07:55:14.018Z,305
2018-12-20T07:56:14.120Z,305
2018-12-20T07:57:14.099Z,305
2018-12-20T07:58:14.138Z,305
2018-12-20T07:59:14.071Z,305
2018-12-20T08:00:14.115Z,305
2018-12-20T08:01:14.076Z,305
2018-12-20T08:02:14.064Z,305
2018-12-20T08:03:14.120Z,304.5
2018-12-20T08:04:14.056Z,292.8
2018-12-20T08:05:14.065Z,287.2
2018-12-20T08:06:14.021Z,284.7
2018-12-20T08:07:14.077Z,283.5
2018-12-20T08:08:14.163Z,283
2018-12-20T08:09:14.099Z,283.4
2018-12-20T08:10:16.102Z,282.9
2018-12-20T08:11:14.108Z,282.7
2018-12-20T08:12:14.053Z,282.6
2018-12-20T08:13:14.079Z,282.5
2018-12-20T08:14:14.077Z,282.5
2018-12-20T08:15:14.117Z,282.5
2018-12-20T08:16:14.081Z,282.5
2018-12-20T08:17:14.025Z,282.5
2018-12-20T08:18:14.093Z,282.5
2018-12-20T08:19:14.076Z,282.5
2018-12-20T08:20:14.164Z,282.5
2018-12-20T08:21:14.050Z,282.5
2018-12-20T08:22:14.080Z,282.5
2018-12-20T08:23:14.047Z,282.5
2018-12-20T08:24:14.057Z,282.5
2018-12-20T08:25:14.146Z,282.5
2018-12-20T08:26:14.117Z,282.5
2018-12-20T08:27:14.120Z,282.5
2018-12-20T08:28:14.005Z,282.5
2018-12-20T08:29:14.126Z,282.5
2018-12-20T08:30:14.126Z,282.5
2018-12-20T08:31:14.084Z,282.5
2018-12-20T08:32:14.143Z,282.5
2018-12-20T08:33:14.048Z,283.7
2018-12-20T08:34:14.050Z,283
2018-12-20T08:35:14.164Z,282.7
2018-12-20T08:36:14.039Z,282.6
2018-12-20T08:37:14.088Z,282.6
2018-12-20T08:38:14.049Z,282.5
2018-12-20T08:39:14.026Z,282.5
2018-12-20T08:40:14.033Z,282.5
2018-12-20T08:41:14.118Z,282.5
2018-12-20T08:42:14.096Z,282.5
2018-12-20T08:43:14.137Z,282.5
2018-12-20T08:44:14.049Z,282.5
2018-12-20T08:45:13.982Z,282.5
2018-12-20T08:46:14.055Z,282.5
2018-12-20T08:47:14.122Z,282.5
2018-12-20T08:48:14.093Z,282.5
2018-12-20T08:49:14.066Z,282.5
2018-12-20T08:50:14.035Z,282.5
2018-12-20T08:51:14.014Z,282.5
2018-12-20T08:52:14.109Z,282.5
2018-12-20T08:53:14.266Z,271.1
2018-12-20T08:54:14.044Z,265
2018-12-20T08:55:13.981Z,262.3
2018-12-20T08:56:14.070Z,261.1
2018-12-20T08:57:14.098Z,260.5
2018-12-20T08:58:14.163Z,260.2
2018-12-20T08:59:14.024Z,260.1
2018-12-20T09:00:14.087Z,260.1
2018-12-20T09:01:14.012Z,260
2018-12-20T09:02:14.178Z,260
2018-12-20T09:03:14.066Z,260
2018-12-20T09:04:14.033Z,260
2018-12-20T09:05:14.077Z,260
2018-12-20T09:06:14.021Z,260
2018-12-20T09:07:14.056Z,260
2018-12-20T09:08:14.070Z,260
2018-12-20T09:09:14.129Z,260
2018-12-20T09:10:14.052Z,260
2018-12-20T09:11:13.960Z,260
2018-12-20T09:12:14.067Z,260
2018-12-20T09:13:14.135Z,260
2018-12-20T09:14:16.029Z,260
2018-12-20T09:15:14.085Z,260
2018-12-20T09:16:14.035Z,260
2018-12-20T09:17:13.940Z,260
2018-12-20T09:18:14.301Z,260
2018-12-20T09:19:14.051Z,260
2018-12-20T09:20:14.107Z,260
2018-12-20T09:21:14.080Z,260
2018-12-20T09:22:14.020Z,260
2018-12-20T09:23:14.048Z,260
2018-12-20T09:24:14.113Z,260
2018-12-20T09:25:14.073Z,260
2018-12-20T09:26:14.037Z,260
2018-12-20T09:27:14.072Z,260
2018-12-20T09:28:13.957Z,260
2018-12-20T09:29:14.098Z,260
2018-12-20T09:30:14.023Z,260
2018-12-20T09:31:14.038Z,260
2018-12-20T09:32:14.070Z,260
2018-12-20T09:33:14.012Z,260
2018-12-20T09:34:14.059Z,260
2018-12-20T09:35:13.993Z,260
2018-12-20T09:36:14.105Z,260
2018-12-20T09:37:14.049Z,260
2018-12-20T09:38:14.060Z,260
2018-12-20T09:39:14.057Z,260
2018-12-20T09:40:14.043Z,260
2018-12-20T09:41:14.099Z,260
2018-12-20T09:42:14.052Z,260.5
2018-12-20T09:43:14.032Z,260.2
2018-12-20T09:44:14.090Z,260.1
2018-12-20T09:45:14.100Z,260.1
2018-12-20T09:46:14.019Z,260
2018-12-20T09:47:15.556Z,260
2018-12-20T09:48:14.059Z,260
2018-12-20T09:49:14.103Z,260
2018-12-20T09:50:13.936Z,260
2018-12-20T09:51:14.111Z,260
2018-12-20T09:52:14.036Z,260
2018-12-20T09:53:14.090Z,260
2018-12-20T09:54:14.016Z,260
2018-12-20T09:55:14.046Z,260
2018-12-20T09:56:14.093Z,260
2018-12-20T09:57:14.029Z,260
2018-12-20T09:58:14.139Z,260
2018-12-20T09:59:14.062Z,260
2018-12-20T10:00:14.048Z,260
2018-12-20T10:01:13.987Z,260
2018-12-20T10:02:14.003Z,260
2018-12-20T10:03:14.019Z,260
2018-12-20T10:04:14.112Z,260
2018-12-20T10:05:14.045Z,260
2018-12-20T10:06:14.003Z,260
2018-12-20T10:07:14.100Z,260
2018-12-20T10:08:14.003Z,260
2018-12-20T10:09:14.020Z,260
2018-12-20T10:10:14.127Z,260
2018-12-20T10:11:13.988Z,260
2018-12-20T10:12:14.029Z,260
2018-12-20T10:13:14.085Z,260
2018-12-20T10:14:13.989Z,260
2018-12-20T10:15:14.081Z,260
2018-12-20T10:16:14.071Z,260
2018-12-20T10:17:22.072Z,260
2018-12-20T10:18:14.049Z,260
2018-12-20T10:19:14.108Z,260
2018-12-20T10:20:14.070Z,260
2018-12-20T10:21:14.018Z,260
2018-12-20T10:22:13.949Z,260
2018-12-20T10:23:13.994Z,260
2018-12-20T10:24:14.021Z,260
2018-12-20T10:25:14.024Z,260
2018-12-20T10:26:14.069Z,260
2018-12-20T10:27:14.036Z,260
2018-12-20T10:28:15.441Z,260
2018-12-20T10:29:14.049Z,260
2018-12-20T10:30:14.013Z,260
2018-12-20T10:31:14.033Z,260
2018-12-20T10:32:13.997Z,260
2018-12-20T10:33:13.989Z,260
2018-12-20T10:34:14.066Z,260
2018-12-20T10:35:14.040Z,260
2018-12-20T10:36:14.047Z,260
2018-12-20T10:37:14.034Z,260
2018-12-20T10:38:14.057Z,260
2018-12-20T10:39:13.959Z,260
2018-12-20T10:40:13.977Z,260
2018-12-20T10:41:14.133Z,260
2018-12-20T10:42:14.006Z,260
2018-12-20T10:43:13.961Z,260
2018-12-20T10:44:13.958Z,260
2018-12-20T10:45:14.042Z,260
2018-12-20T10:46:13.981Z,260
2018-12-20T10:47:14.127Z,260
2018-12-20T10:48:13.988Z,260
2018-12-20T10:49:14.013Z,260
2018-12-20T10:50:13.950Z,260.5
2018-12-20T10:51:13.999Z,260.3
2018-12-20T10:52:14.077Z,260.1
2018-12-20T10:53:14.073Z,260.1
2018-12-20T10:54:13.976Z,260
2018-12-20T10:55:13.925Z,260
2018-12-20T10:56:13.981Z,260
2018-12-20T10:57:14.049Z,260
2018-12-20T10:58:14.001Z,260
2018-12-20T10:59:14.119Z,260
2018-12-20T11:00:13.998Z,260
2018-12-20T11:01:13.925Z,260
2018-12-20T11:02:13.971Z,260
2018-12-20T11:03:14.021Z,260
2018-12-20T11:04:14.026Z,260
2018-12-20T11:05:14.018Z,260
2018-12-20T11:06:13.996Z,260
2018-12-20T11:07:13.959Z,260
2018-12-20T11:08:14.035Z,260
2018-12-20T11:09:14.056Z,260
2018-12-20T11:10:13.967Z,260
2018-12-20T11:11:14.036Z,260
2018-12-20T11:12:14.001Z,260
2018-12-20T11:13:14.175Z,260
2018-12-20T11:14:13.969Z,260
2018-12-20T11:15:13.994Z,260
2018-12-20T11:16:13.955Z,260
2018-12-20T11:17:14.083Z,260
2018-12-20T11:18:14.033Z,260
2018-12-20T11:19:14.017Z,260
2018-12-20T11:20:14.013Z,260
2018-12-20T11:21:13.995Z,260
2018-12-20T11:22:13.939Z,260
2018-12-20T11:23:13.976Z,260
2018-12-20T11:24:14.064Z,260
2018-12-20T11:25:14.091Z,260
2018-12-20T11:26:14.038Z,260
2018-12-20T11:27:13.983Z,260
2018-12-20T11:28:13.942Z,260
2018-12-20T11:29:13.976Z,260
2018-12-20T11:30:14.011Z,260
2018-12-20T11:31:14.600Z,260
2018-12-20T11:32:14.028Z,260
2018-12-20T11:33:13.899Z,260
2018-12-20T11:34:13.948Z,260
2018-12-20T11:35:14.007Z,260
2018-12-20T11:36:14.078Z,260
2018-12-20T11:37:13.970Z,260
2018-12-20T11:38:13.950Z,260
2018-12-20T11:39:13.930Z,260
2018-12-20T11:40:13.986Z,260
2018-12-20T11:41:14.082Z,260
2018-12-20T11:42:14.020Z,260
2018-12-20T11:43:14.055Z,260
2018-12-20T11:44:13.906Z,260
2018-12-20T11:45:14.028Z,260
2018-12-20T11:46:14.027Z,260
2018-12-20T11:47:13.954Z,260
2018-12-20T11:48:14.045Z,260
2018-12-20T11:49:14.032Z,258.2
2018-12-20T11:50:13.943Z,259.1
2018-12-20T11:51:13.982Z,259.6
2018-12-20T11:52:14.073Z,259.8
2018-12-20T11:53:14.084Z,259.9
2018-12-20T11:54:13.910Z,260
2018-12-20T11:55:14.242Z,260
2018-12-20T11:56:13.965Z,260
2018-12-20T11:57:13.958Z,260
2018-12-20T11:58:13.917Z,260
2018-12-20T11:59:14.022Z,260
2018-12-20T12:00:13.959Z,260
2018-12-20T12:01:13.910Z,260
2018-12-20T12:02:13.942Z,260
2018-12-20T12:03:14.091Z,260
2018-12-20T12:04:14.008Z,260
2018-12-20T12:05:13.985Z,260.6
2018-12-20T12:06:13.914Z,260.3
2018-12-20T12:07:14.011Z,260.1
2018-12-20T12:08:14.024Z,260.1
2018-12-20T12:09:14.060Z,260
2018-12-20T12:10:13.979Z,270.5
2018-12-20T12:11:13.984Z,289.4
2018-12-20T12:12:14.001Z,298
2018-12-20T12:13:13.922Z,301.8
2018-12-20T12:14:14.067Z,303.5
2018-12-20T12:15:13.910Z,304.3
2018-12-20T12:16:13.961Z,304.7
2018-12-20T12:17:14.009Z,304.9
2018-12-20T12:18:13.947Z,304.9
2018-12-20T12:19:13.955Z,305
2018-12-20T12:20:14.043Z,305
2018-12-20T12:21:14.018Z,305
2018-12-20T12:22:13.914Z,305
2018-12-20T12:23:14.042Z,305
2018-12-20T12:24:13.936Z,305
2018-12-20T12:25:13.952Z,305
2018-12-20T12:26:14.051Z,305
2018-12-20T12:27:14.051Z,305
2018-12-20T12:28:13.921Z,305
2018-12-20T12:29:13.947Z,305
2018-12-20T12:30:13.943Z,313.6
2018-12-20T12:31:14.009Z,321
2018-12-20T12:32:13.933Z,321.8
2018-12-20T12:33:13.927Z,312.8
2018-12-20T12:34:13.908Z,308.6
2018-12-20T12:35:13.945Z,306.7
2018-12-20T12:36:14.056Z,305.8
2018-12-20T12:37:13.945Z,305.4
2018-12-20T12:38:14.002Z,305.2
2018-12-20T12:39:13.972Z,305.1
2018-12-20T12:40:14.004Z,305
2018-12-20T12:41:13.936Z,305
2018-12-20T12:42:13.962Z,305
2018-12-20T12:43:13.884Z,305
2018-12-20T12:44:13.987Z,305
2018-12-20T12:45:13.951Z,305
2018-12-20T12:46:14.006Z,305
2018-12-20T12:47:16.097Z,292
2018-12-20T12:48:13.968Z,273.7
2018-12-20T12:49:13.994Z,266.3
2018-12-20T12:50:13.899Z,262.8
2018-12-20T12:51:13.946Z,261.3
2018-12-20T12:52:13.963Z,260.6
2018-12-20T12:53:13.944Z,260.3
2018-12-20T12:54:13.988Z,260.1
2018-12-20T12:55:13.933Z,260.1
2018-12-20T12:56:13.955Z,260
2018-12-20T12:57:13.967Z,260
2018-12-20T12:58:13.968Z,260
2018-12-20T12:59:13.997Z,260
2018-12-20T13:00:13.909Z,260
2018-12-20T13:01:13.969Z,260
2018-12-20T13:02:13.963Z,260
2018-12-20T13:03:13.983Z,260
2018-12-20T13:04:13.962Z,260.2
2018-12-20T13:05:13.998Z,269.7
2018-12-20T13:06:13.869Z,289
2018-12-20T13:07:13.976Z,297.8
2018-12-20T13:08:13.932Z,301.7
2018-12-20T13:09:13.971Z,303.5
2018-12-20T13:10:14.049Z,304.3
2018-12-20T13:11:13.889Z,304.7
2018-12-20T13:12:13.856Z,304.8
2018-12-20T13:13:13.904Z,304.9
2018-12-20T13:14:14.064Z,305
2018-12-20T13:15:14.054Z,305
2018-12-20T13:16:13.915Z,305
2018-12-20T13:17:14.037Z,305
2018-12-20T13:18:17.524Z,305
2018-12-20T13:19:13.956Z,305
2018-12-20T13:20:14.014Z,305
2018-12-20T13:21:13.985Z,305
2018-12-20T13:22:13.898Z,305
2018-12-20T13:23:13.919Z,305
2018-12-20T13:24:20.181Z,305
2018-12-20T13:25:21.229Z,304.7
2018-12-20T13:26:18.004Z,304.9
2018-12-20T13:27:18.559Z,304.7
2018-12-20T13:28:18.772Z,304.8
2018-12-20T13:29:18.527Z,304.9
2018-12-20T13:30:13.954Z,305
2018-12-20T13:31:13.985Z,305
2018-12-20T13:32:18.875Z,305
2018-12-20T13:33:16.335Z,305
2018-12-20T13:34:14.214Z,305
2018-12-20T13:35:13.997Z,305
2018-12-20T13:36:13.941Z,305